createdAt,value
2018-01-07T00:00:32.204Z,7.67
2018-01-07T00:03:00.392Z,7.80
2018-01-07T00:05:28.666Z,9.07
2018-01-07T00:07:58.124Z,9.10
2018-01-07T00:10:26.914Z,8.10
2018-01-07T00:12:54.940Z,8.10
2018-01-07T00:15:23.930Z,7.90
2018-01-07T00:17:51.718Z,11.27
2018-01-07T00:20:20.286Z,10.83
2018-01-07T00:22:48.085Z,10.63
2018-01-07T00:25:15.976Z,10.03
2018-01-07T00:27:43.862Z,10.20
2018-01-07T00:30:11.738Z,9.43
2018-01-07T00:32:39.595Z,10.97
2018-01-07T00:35:07.470Z,10.87
2018-01-07T00:37:35.441Z,10.80
2018-01-07T00:40:03.507Z,9.80
2018-01-07T00:42:31.452Z,10.80
2018-01-07T00:44:59.349Z,13.17
2018-01-07T00:47:27.510Z,14.97
2018-01-07T00:49:57.310Z,14.60
2018-01-07T00:52:25.129Z,12.20
2018-01-07T00:54:53.673Z,13.33
2018-01-07T00:57:22.645Z,12.43
2018-01-07T00:59:51.242Z,13.20
2018-01-07T01:02:19.019Z,10.13
2018-01-07T01:04:46.783Z,13.20
2018-01-07T01:07:14.723Z,13.93
2018-01-07T01:09:42.691Z,11.40
2018-01-07T01:12:10.969Z,12.83
2018-01-07T01:14:39.448Z,14.43
2018-01-07T01:17:07.418Z,15.67
2018-01-07T01:19:35.176Z,16.30
2018-01-07T01:22:02.943Z,14.87
2018-01-07T01:24:31.017Z,16.60
2018-01-07T01:26:59.614Z,13.90
2018-01-07T01:29:27.480Z,11.20
2018-01-07T01:31:55.260Z,10.07
2018-01-07T01:34:23.115Z,10.20
2018-01-07T01:36:50.988Z,9.40
2018-01-07T01:39:18.963Z,11.13
2018-01-07T01:41:48.276Z,15.53
2018-01-07T01:44:16.937Z,15.77
2018-01-07T01:46:44.806Z,14.73
2018-01-07T01:49:24.567Z,15.17
2018-01-07T01:51:52.408Z,12.10
2018-01-07T01:54:20.363Z,11.10
2018-01-07T01:56:48.358Z,11.70
2018-01-07T01:59:16.114Z,11.03
2018-01-07T02:01:44.085Z,11.70
2018-01-07T02:04:11.947Z,11.17
2018-01-07T02:06:41.867Z,11.20
2018-01-07T02:09:09.732Z,10.80
2018-01-07T02:11:37.503Z,11.33
2018-01-07T02:14:05.363Z,9.93
2018-01-07T02:16:33.220Z,9.33
2018-01-07T02:19:00.995Z,9.70
2018-01-07T02:21:28.860Z,8.87
2018-01-07T02:23:57.071Z,11.73
2018-01-07T02:26:25.617Z,12.23
2018-01-07T02:28:53.645Z,11.57
2018-01-07T02:31:21.571Z,9.17
2018-01-07T02:33:49.420Z,9.50
2018-01-07T02:36:17.287Z,9.10
2018-01-07T02:38:45.290Z,9.00
2018-01-07T02:41:13.077Z,8.10
2018-01-07T02:43:42.027Z,8.13
2018-01-07T02:46:09.876Z,7.80
2018-01-07T02:48:37.683Z,7.70
2018-01-07T02:51:05.505Z,7.20
2018-01-07T02:53:33.387Z,7.60
2018-01-07T02:56:01.731Z,7.47
2018-01-07T02:58:29.639Z,9.73
2018-01-07T03:00:57.466Z,7.90
2018-01-07T03:03:25.244Z,7.60
2018-01-07T03:05:53.200Z,9.40
2018-01-07T03:08:20.978Z,9.70
2018-01-07T03:10:48.858Z,9.37
2018-01-07T03:13:16.716Z,9.70
2018-01-07T03:15:45.500Z,11.10
2018-01-07T03:18:13.472Z,10.10
2018-01-07T03:20:41.419Z,10.53
2018-01-07T03:23:09.299Z,10.67
2018-01-07T03:25:37.048Z,10.40
2018-01-07T03:28:04.935Z,11.10
2018-01-07T03:30:32.700Z,11.20
2018-01-07T03:33:00.473Z,11.63
2018-01-07T03:35:28.442Z,10.60
2018-01-07T03:37:56.256Z,12.43
2018-01-07T03:40:24.673Z,9.53
2018-01-07T03:42:52.540Z,8.87
2018-01-07T03:45:20.511Z,9.70
2018-01-07T03:47:48.391Z,8.80
2018-01-07T03:50:16.436Z,10.10
2018-01-07T03:52:44.323Z,9.87
2018-01-07T03:55:12.385Z,8.80
2018-01-07T03:57:40.280Z,13.90
2018-01-07T04:00:08.806Z,12.97
2018-01-07T04:02:36.680Z,6.93
2018-01-07T04:05:04.700Z,6.27
2018-01-07T04:07:33.210Z,6.03
2018-01-07T04:10:00.949Z,5.90
2018-01-07T04:12:29.500Z,5.70
2018-01-07T04:14:57.449Z,5.07
2018-01-07T04:17:25.315Z,6.20
2018-01-07T04:19:53.232Z,6.00
2018-01-07T04:22:21.781Z,5.70
2018-01-07T04:24:49.524Z,5.10
2018-01-07T04:27:17.410Z,4.90
2018-01-07T04:29:45.191Z,6.43
2018-01-07T04:32:12.962Z,6.17
2018-01-07T04:34:40.711Z,9.23
2018-01-07T04:37:08.654Z,7.30
2018-01-07T04:39:36.400Z,13.17
2018-01-07T04:42:04.455Z,18.77
2018-01-07T04:44:32.931Z,18.60
2018-01-07T04:47:01.573Z,20.97
2018-01-07T04:49:29.642Z,21.90
2018-01-07T04:51:58.539Z,18.23
2018-01-07T04:54:26.794Z,18.63
2018-01-07T04:56:54.571Z,17.77
2018-01-07T04:59:22.417Z,21.50
2018-01-07T05:01:50.617Z,21.80
2018-01-07T05:04:18.465Z,22.53
2018-01-07T05:06:47.005Z,21.63
2018-01-07T05:09:15.725Z,21.43
2018-01-07T05:11:43.524Z,22.50
2018-01-07T05:14:12.004Z,24.80
2018-01-07T05:16:40.778Z,12.50
2018-01-07T05:19:08.646Z,6.23
2018-01-07T05:21:37.028Z,5.40
2018-01-07T05:24:04.814Z,5.83
2018-01-07T05:26:34.416Z,6.73
2018-01-07T05:29:02.381Z,9.00
2018-01-07T05:31:30.417Z,7.97
2018-01-07T05:33:58.425Z,9.27
2018-01-07T05:36:26.412Z,9.23
2018-01-07T05:38:54.451Z,10.00
2018-01-07T05:41:22.194Z,10.80
2018-01-07T05:43:50.203Z,13.90
2018-01-07T05:46:18.959Z,13.53
2018-01-07T05:48:47.872Z,14.83
2018-01-07T05:51:15.620Z,14.37
2018-01-07T05:53:43.586Z,16.73
2018-01-07T05:56:11.383Z,16.00
2018-01-07T05:58:39.937Z,20.97
2018-01-07T06:01:08.003Z,21.67
2018-01-07T06:03:36.898Z,19.77
2018-01-07T06:06:04.860Z,18.30
2018-01-07T06:08:32.637Z,22.50
2018-01-07T06:11:00.512Z,24.10
2018-01-07T06:13:29.036Z,23.80
2018-01-07T06:15:56.943Z,26.17
2018-01-07T06:18:24.708Z,21.70
2018-01-07T06:20:52.469Z,36.27
2018-01-07T06:23:20.410Z,24.40
2018-01-07T06:25:48.174Z,20.73
2018-01-07T06:28:16.173Z,19.00
2018-01-07T06:30:44.436Z,24.10
2018-01-07T06:33:12.711Z,22.70
2018-01-07T06:35:40.696Z,22.07
2018-01-07T06:38:08.667Z,30.30
2018-01-07T06:40:36.437Z,18.83
2018-01-07T06:43:05.420Z,18.50
2018-01-07T06:45:33.172Z,21.50
2018-01-07T06:48:01.056Z,18.33
2018-01-07T06:50:29.029Z,20.37
2018-01-07T06:52:56.882Z,19.90
2018-01-07T06:55:25.072Z,26.67
2018-01-07T06:57:53.008Z,22.70
2018-01-07T07:00:20.793Z,19.23
2018-01-07T07:02:48.557Z,22.40
2018-01-07T07:05:16.533Z,12.43
2018-01-07T07:07:44.728Z,23.40
2018-01-07T07:10:13.669Z,13.80
2018-01-07T07:12:42.141Z,11.70
2018-01-07T07:15:10.154Z,13.60
2018-01-07T07:17:38.094Z,14.50
2018-01-07T07:20:06.181Z,27.40
2018-01-07T07:22:34.032Z,25.40
2018-01-07T07:25:01.810Z,23.87
2018-01-07T07:27:30.258Z,21.87
2018-01-07T07:29:58.039Z,23.23
2018-01-07T07:32:25.962Z,20.07
2018-01-07T07:34:54.078Z,18.20
2018-01-07T07:37:21.859Z,14.13
2018-01-07T07:39:49.742Z,13.40
2018-01-07T07:42:17.507Z,12.67
2018-01-07T07:44:45.442Z,11.60
2018-01-07T07:47:14.231Z,8.80
2018-01-07T07:49:42.202Z,8.30
2018-01-07T07:52:10.020Z,9.00
2018-01-07T07:54:38.998Z,9.27
2018-01-07T07:57:06.975Z,8.90
2018-01-07T07:59:35.617Z,9.70
2018-01-07T08:02:03.597Z,8.87
2018-01-07T08:04:31.595Z,9.60
2018-01-07T08:07:00.409Z,9.50
2018-01-07T08:09:28.322Z,10.40
2018-01-07T08:11:56.792Z,12.70
2018-01-07T08:14:24.679Z,12.83
2018-01-07T08:16:52.454Z,10.43
2018-01-07T08:19:20.665Z,8.80
2018-01-07T08:21:48.530Z,7.57
2018-01-07T08:24:16.341Z,7.93
2018-01-07T08:26:44.426Z,7.20
2018-01-07T08:29:12.603Z,7.47
2018-01-07T08:31:40.842Z,6.80
2018-01-07T08:34:09.026Z,6.20
2018-01-07T08:36:37.005Z,7.10
2018-01-07T08:39:05.562Z,6.93
2018-01-07T08:41:33.354Z,7.40
2018-01-07T08:44:01.624Z,7.50
2018-01-07T08:46:29.691Z,6.73
2018-01-07T08:48:57.610Z,7.50
2018-01-07T08:51:25.734Z,7.10
2018-01-07T08:53:53.720Z,9.47
2018-01-07T08:56:21.823Z,9.90
2018-01-07T08:59:09.399Z,9.70
2018-01-07T09:01:37.482Z,11.60
2018-01-07T09:04:05.428Z,12.80
2018-01-07T09:06:33.320Z,12.17
2018-01-07T09:09:01.162Z,13.37
2018-01-07T09:11:29.025Z,13.97
2018-01-07T09:13:57.405Z,13.27
2018-01-07T09:16:25.342Z,14.53
2018-01-07T09:18:53.887Z,16.20
2018-01-07T09:21:22.152Z,17.47
2018-01-07T09:23:50.787Z,14.63
2018-01-07T09:26:18.892Z,9.20
2018-01-07T09:28:46.762Z,10.57
2018-01-07T09:31:15.045Z,10.50
2018-01-07T09:33:43.101Z,9.10
2018-01-07T09:36:10.965Z,9.30
2018-01-07T09:38:39.037Z,7.93
2018-01-07T09:41:08.083Z,8.37
2018-01-07T09:43:40.202Z,7.07
2018-01-07T09:46:08.191Z,7.77
2018-01-07T09:48:37.544Z,7.30
2018-01-07T09:51:08.439Z,7.40
2018-01-07T09:53:37.438Z,7.57
2018-01-07T09:56:06.915Z,7.73
2018-01-07T09:58:37.056Z,9.17
2018-01-07T10:01:07.736Z,12.30
2018-01-07T10:03:39.907Z,10.30
2018-01-07T10:06:08.558Z,10.13
2018-01-07T10:08:37.710Z,9.47
2018-01-07T10:11:09.076Z,10.77
2018-01-07T10:13:37.376Z,10.60
2018-01-07T10:16:31.981Z,11.50
2018-01-07T10:19:03.252Z,10.80
2018-01-07T10:21:41.845Z,11.90
2018-01-07T10:24:26.639Z,11.63
2018-01-07T10:26:58.972Z,11.80
2018-01-07T10:29:31.116Z,11.60
2018-01-07T10:32:01.356Z,11.90
2018-01-07T10:34:34.177Z,11.53
2018-01-07T10:37:09.809Z,11.47
2018-01-07T10:39:44.973Z,17.23
2018-01-07T10:42:20.780Z,18.97
2018-01-07T10:44:55.322Z,16.63
2018-01-07T10:47:30.153Z,11.07
2018-01-07T10:50:04.941Z,11.27
2018-01-07T10:52:40.871Z,12.17
2018-01-07T10:55:16.091Z,13.50
2018-01-07T10:57:51.003Z,13.23
2018-01-07T11:00:26.637Z,11.43
2018-01-07T11:03:01.682Z,9.90
2018-01-07T11:05:37.422Z,10.17
2018-01-07T11:08:12.117Z,9.73
2018-01-07T11:10:49.349Z,10.47
2018-01-07T11:13:24.642Z,10.03
2018-01-07T11:16:00.387Z,9.90
2018-01-07T11:18:35.254Z,12.70
2018-01-07T11:21:09.698Z,15.90
2018-01-07T11:23:42.373Z,12.23
2018-01-07T11:26:16.338Z,9.47
2018-01-07T11:28:51.468Z,10.10
2018-01-07T11:31:26.959Z,10.43
2018-01-07T11:34:02.840Z,10.63
2018-01-07T11:36:34.622Z,9.67
2018-01-07T11:43:03.236Z,9.07
2018-01-07T11:45:38.442Z,9.60
2018-01-07T11:48:12.376Z,9.67
2018-01-07T11:50:46.938Z,11.27
2018-01-07T11:53:21.577Z,11.27
2018-01-07T11:55:55.715Z,9.90
2018-01-07T11:58:31.627Z,10.73
2018-01-07T12:01:06.732Z,10.53
2018-01-07T12:03:38.659Z,11.00
2018-01-07T12:06:13.959Z,12.40
2018-01-07T12:08:49.899Z,11.90
2018-01-07T12:11:25.252Z,11.23
2018-01-07T12:14:03.125Z,11.50
2018-01-07T12:16:38.738Z,11.60
2018-01-07T12:19:08.259Z,11.07
2018-01-07T12:21:36.110Z,10.40
2018-01-07T12:24:03.891Z,11.40
2018-01-07T12:26:31.850Z,12.80
2018-01-07T12:28:59.798Z,11.53
2018-01-07T12:31:27.871Z,12.00
2018-01-07T12:33:55.744Z,12.60
2018-01-07T12:36:23.671Z,10.37
2018-01-07T12:38:51.479Z,11.00
2018-01-07T12:41:19.323Z,9.57
2018-01-07T12:43:47.020Z,11.97
2018-01-07T12:46:15.083Z,11.20
2018-01-07T12:51:36.427Z,12.87
2018-01-07T12:54:04.486Z,11.53
2018-01-07T12:56:32.366Z,10.87
2018-01-07T12:59:00.230Z,10.53
2018-01-07T13:01:28.179Z,10.77
2018-01-07T13:03:56.057Z,10.20
2018-01-07T13:06:24.023Z,11.17
2018-01-07T13:08:51.884Z,8.40
2018-01-07T13:11:20.130Z,8.00
2018-01-07T13:13:48.132Z,8.73
2018-01-07T13:16:15.991Z,7.57
2018-01-07T13:18:45.532Z,7.57
2018-01-07T13:21:15.114Z,8.40
2018-01-07T13:23:43.827Z,10.23
2018-01-07T13:26:12.693Z,8.17
2018-01-07T13:28:40.608Z,7.90
2018-01-07T13:31:08.613Z,7.10
2018-01-07T13:33:36.982Z,7.63
2018-01-07T13:36:05.088Z,7.73
2018-01-07T13:38:33.673Z,7.90
2018-01-07T13:41:01.448Z,8.10
2018-01-07T13:43:29.399Z,7.67
2018-01-07T13:45:57.612Z,8.03
2018-01-07T13:48:25.836Z,6.83
2018-01-07T13:50:53.708Z,8.00
2018-01-07T13:53:22.536Z,8.43
2018-01-07T13:55:51.179Z,8.00
2018-01-07T13:58:19.246Z,8.60
2018-01-07T14:00:47.370Z,8.37
2018-01-07T14:03:16.023Z,7.30
2018-01-07T14:05:43.887Z,8.23
2018-01-07T14:08:11.642Z,8.20
2018-01-07T14:10:39.601Z,9.17
2018-01-07T14:13:07.701Z,8.40
2018-01-07T14:15:35.895Z,7.93
2018-01-07T14:18:05.118Z,9.40
2018-01-07T14:20:33.124Z,9.27
2018-01-07T14:23:03.756Z,8.83
2018-01-07T14:28:49.910Z,8.10
2018-01-07T14:31:20.722Z,10.97
2018-01-07T14:33:48.594Z,11.60
2018-01-07T14:36:16.407Z,9.50
2018-01-07T14:38:44.130Z,10.20
2018-01-07T14:41:12.991Z,8.97
2018-01-07T14:43:40.964Z,9.10
2018-01-07T14:46:08.832Z,9.00
2018-01-07T14:48:36.984Z,9.63
2018-01-07T14:51:05.290Z,8.40
2018-01-07T14:53:33.140Z,9.60
2018-01-07T14:56:00.967Z,10.50
2018-01-07T14:58:28.973Z,9.93
2018-01-07T15:00:57.782Z,10.77
2018-01-07T15:03:25.732Z,11.93
2018-01-07T15:05:54.001Z,12.97
2018-01-07T15:08:21.967Z,11.70
2018-01-07T15:10:49.896Z,12.10
2018-01-07T15:13:17.845Z,10.53
2018-01-07T15:15:46.503Z,15.87
2018-01-07T15:18:14.337Z,21.40
2018-01-07T15:20:42.285Z,15.47
2018-01-07T15:23:10.194Z,19.07
2018-01-07T15:25:38.048Z,16.37
2018-01-07T15:28:05.934Z,14.00
2018-01-07T15:30:33.784Z,22.63
2018-01-07T15:33:02.336Z,17.63
2018-01-07T15:35:30.242Z,14.03
2018-01-07T15:37:58.203Z,12.70
2018-01-07T15:40:34.079Z,14.30
2018-01-07T15:43:02.025Z,14.60
2018-01-07T15:45:29.865Z,15.80
2018-01-07T15:47:57.969Z,15.07
2018-01-07T15:50:26.030Z,16.30
2018-01-07T15:52:54.066Z,17.33
2018-01-07T15:55:24.049Z,15.73
2018-01-07T15:57:52.746Z,15.10
2018-01-07T16:00:20.682Z,16.13
2018-01-07T16:02:48.786Z,15.33
2018-01-07T16:05:16.650Z,16.80
2018-01-07T16:07:45.723Z,15.70
2018-01-07T16:10:14.608Z,14.60
2018-01-07T16:12:42.673Z,17.53
2018-01-07T16:15:11.158Z,15.83
2018-01-07T16:17:40.992Z,19.67
2018-01-07T16:20:09.259Z,34.40
2018-01-07T16:22:37.060Z,28.10
2018-01-07T16:25:07.581Z,27.97
2018-01-07T16:27:36.770Z,26.67
2018-01-07T16:30:17.820Z,26.20
2018-01-07T16:32:45.742Z,25.70
2018-01-07T16:35:13.780Z,24.70
2018-01-07T16:37:41.957Z,25.27
2018-01-07T16:40:10.031Z,21.17
2018-01-07T16:42:38.857Z,25.30
2018-01-07T16:45:07.631Z,27.97
2018-01-07T16:47:35.685Z,30.40
2018-01-07T16:50:03.680Z,42.97
2018-01-07T16:52:32.759Z,56.07
2018-01-07T16:55:00.708Z,57.03
2018-01-07T16:57:28.791Z,30.73
2018-01-07T16:59:56.677Z,41.13
2018-01-07T17:02:24.716Z,22.80
2018-01-07T17:04:52.583Z,35.47
2018-01-07T17:07:20.559Z,29.67
2018-01-07T17:09:48.522Z,28.70
2018-01-07T17:12:16.519Z,24.63
2018-01-07T17:14:44.326Z,21.73
2018-01-07T17:17:12.130Z,22.90
2018-01-07T17:19:40.118Z,19.97
2018-01-07T17:22:08.975Z,26.47
2018-01-07T17:24:37.048Z,45.57
2018-01-07T17:27:05.024Z,39.30
2018-01-07T17:29:32.968Z,41.23
2018-01-07T17:32:01.065Z,35.40
2018-01-07T17:34:29.898Z,53.53
2018-01-07T17:36:58.779Z,33.33
2018-01-07T17:39:27.463Z,37.03
2018-01-07T17:41:56.142Z,38.63
2018-01-07T17:44:24.834Z,26.63
2018-01-07T17:46:53.479Z,42.70
2018-01-07T17:49:21.362Z,40.33
2018-01-07T17:51:49.420Z,36.57
2018-01-07T17:54:17.306Z,32.10
2018-01-07T17:56:48.783Z,36.03
2018-01-07T17:59:16.917Z,29.67
2018-01-07T18:01:44.895Z,28.03
2018-01-07T18:04:12.882Z,30.07
2018-01-07T18:06:41.629Z,33.40
2018-01-07T18:09:10.652Z,31.33
2018-01-07T18:11:38.699Z,29.20
2018-01-07T18:14:06.979Z,25.40
2018-01-07T18:16:34.866Z,32.40
2018-01-07T18:19:02.827Z,30.80
2018-01-07T18:21:30.803Z,28.00
2018-01-07T18:23:59.484Z,32.77
2018-01-07T18:26:28.182Z,29.00
2018-01-07T18:28:56.863Z,27.23
2018-01-07T18:31:25.558Z,28.50
2018-01-07T18:33:54.321Z,29.90
2018-01-07T18:36:22.173Z,28.40
2018-01-07T18:38:50.047Z,30.20
2018-01-07T18:41:18.034Z,39.13
2018-01-07T18:43:45.972Z,39.50
2018-01-07T18:46:14.758Z,36.97
2018-01-07T18:48:42.735Z,43.50
2018-01-07T18:51:10.637Z,43.03
2018-01-07T18:53:39.410Z,50.53
2018-01-07T18:56:07.403Z,39.47
2018-01-07T18:58:35.555Z,38.50
2018-01-07T19:01:05.079Z,43.50
2018-01-07T19:03:33.818Z,45.00
2018-01-07T19:06:02.614Z,55.43
2018-01-07T19:08:30.605Z,55.07
2018-01-07T19:10:58.404Z,50.57
2018-01-07T19:13:26.343Z,45.63
2018-01-07T19:15:54.379Z,47.13
2018-01-07T19:18:22.249Z,51.37
2018-01-07T19:20:50.330Z,42.70
2018-01-07T19:23:18.348Z,48.50
2018-01-07T19:25:47.008Z,50.67
2018-01-07T19:28:15.055Z,53.60
2018-01-07T19:30:43.145Z,60.27
2018-01-07T19:33:12.123Z,53.67
2018-01-07T19:35:40.074Z,48.00
2018-01-07T19:38:08.149Z,39.83
2018-01-07T19:40:37.647Z,44.07
2018-01-07T19:43:05.819Z,47.10
2018-01-07T19:45:34.719Z,44.00
2018-01-07T19:48:02.630Z,34.13
2018-01-07T19:50:31.957Z,36.97
2018-01-07T19:53:00.540Z,36.80
2018-01-07T19:55:29.458Z,37.23
2018-01-07T19:57:57.584Z,43.70
2018-01-07T20:00:27.484Z,37.17
2018-01-07T20:02:55.652Z,39.70
2018-01-07T20:05:24.001Z,36.80
2018-01-07T20:07:53.401Z,38.63
2018-01-07T20:10:22.796Z,33.87
2018-01-07T20:12:52.020Z,33.13
2018-01-07T20:15:19.973Z,34.80
2018-01-07T20:17:48.439Z,35.97
2018-01-07T20:20:17.827Z,42.97
2018-01-07T20:22:46.040Z,39.60
2018-01-07T20:25:14.385Z,43.57
2018-01-07T20:27:43.395Z,40.30
2018-01-07T20:30:12.111Z,30.80
2018-01-07T20:32:41.231Z,26.30
2018-01-07T20:35:09.963Z,27.13
2018-01-07T20:37:38.170Z,26.47
2018-01-07T20:40:07.126Z,25.63
2018-01-07T20:42:34.996Z,24.00
2018-01-07T20:45:03.271Z,28.73
2018-01-07T20:47:31.341Z,24.10
2018-01-07T20:49:59.206Z,24.40
2018-01-07T20:52:27.174Z,22.87
2018-01-07T20:54:55.380Z,22.60
2018-01-07T20:57:23.233Z,20.43
2018-01-07T20:59:51.104Z,19.93
2018-01-07T21:02:19.290Z,25.50
2018-01-07T21:04:48.042Z,21.60
2018-01-07T21:07:16.521Z,20.27
2018-01-07T21:09:44.890Z,19.30
2018-01-07T21:12:14.104Z,19.87
2018-01-07T21:14:42.189Z,19.13
2018-01-07T21:17:10.385Z,32.13
2018-01-07T21:19:38.238Z,26.20
2018-01-07T21:22:06.765Z,17.90
2018-01-07T21:24:34.856Z,16.77
2018-01-07T21:27:02.937Z,26.83
2018-01-07T21:29:31.108Z,20.67
2018-01-07T21:31:59.205Z,19.50
2018-01-07T21:34:27.263Z,21.63
2018-01-07T21:36:55.339Z,18.50
2018-01-07T21:39:23.217Z,22.00
2018-01-07T21:41:51.087Z,21.93
2018-01-07T21:44:18.949Z,23.17
2018-01-07T21:46:46.813Z,19.87
2018-01-07T21:49:14.756Z,20.80
2018-01-07T21:51:43.721Z,19.30
2018-01-07T21:54:11.518Z,21.00
2018-01-07T21:56:39.354Z,18.83
2018-01-07T21:59:07.242Z,21.20
2018-01-07T22:01:59.099Z,17.40
2018-01-07T22:04:38.843Z,20.53
2018-01-07T22:07:06.885Z,19.77
2018-01-07T22:09:34.857Z,36.40
2018-01-07T22:12:02.931Z,28.37
2018-01-07T22:14:30.866Z,18.90
2018-01-07T22:16:58.796Z,39.93
2018-01-07T22:19:26.615Z,47.17
2018-01-07T22:21:54.494Z,41.60
2018-01-07T22:24:22.371Z,48.40
2018-01-07T22:26:50.154Z,37.77
2018-01-07T22:29:18.095Z,35.83
2018-01-07T22:31:45.986Z,27.13
2018-01-07T22:34:14.742Z,17.60
2018-01-07T22:36:43.051Z,22.00
2018-01-07T22:39:10.888Z,26.17
2018-01-07T22:41:38.760Z,32.03
2018-01-07T22:44:06.743Z,37.70
2018-01-07T22:46:34.502Z,30.80
2018-01-07T22:49:02.458Z,25.77
2018-01-07T22:51:30.258Z,22.57
2018-01-07T22:53:58.930Z,17.23
2018-01-07T22:56:26.773Z,17.40
2018-01-07T22:58:54.737Z,15.80
2018-01-07T23:01:22.715Z,16.63
2018-01-07T23:03:50.782Z,18.10
2018-01-07T23:06:18.561Z,18.83
2018-01-07T23:08:46.615Z,18.60
2018-01-07T23:11:14.499Z,18.13
2018-01-07T23:13:42.474Z,18.03
2018-01-07T23:16:10.332Z,20.60
2018-01-07T23:18:38.111Z,19.67
2018-01-07T23:21:06.282Z,16.30
2018-01-07T23:23:34.251Z,18.50
2018-01-07T23:26:03.537Z,20.87
2018-01-07T23:28:31.514Z,19.80
2018-01-07T23:30:59.670Z,21.40
2018-01-07T23:33:28.073Z,21.70
2018-01-07T23:35:56.020Z,21.40
2018-01-07T23:38:23.795Z,25.70
2018-01-07T23:40:51.878Z,26.00
2018-01-07T23:43:19.805Z,16.90
2018-01-07T23:45:47.708Z,20.23
2018-01-07T23:48:15.593Z,29.43
2018-01-07T23:50:43.435Z,26.00
2018-01-07T23:53:11.318Z,18.87
2018-01-07T23:55:39.172Z,19.50
2018-01-07T23:58:07.042Z,22.27
